Home   Weather   USA   Boise   Past weeks
Flag for USA

Past Weather in Boise, Idaho, USA — Yesterday and Last 2 Weeks

Currently: 65 °F. Clear. (Weather station: Boise Air Terminal, USA). See more current weather

Past Weather in Boise — Graph

°F

Boise Temperature Yesterday

Maximum temperature yesterday: 88 °F (at 6:53 pm)
Minimum temperature yesterday: 62 °F (at 6:53 am)
Average temperature yesterday: 74 °F

High & Low Weather Summary for the Past Weeks

 TemperatureHumidityPressure
High102 °F (Jun 3, 5:53 pm)93% (Jun 10, 3:37 am)30.15 "Hg (Jun 10, 3:37 am)
Low45 °F (Jun 10, 9:35 am)10% (Jun 3, 5:53 pm)29.54 "Hg (Jun 7, 8:53 pm)
Average72 °F36%29.84 "Hg
* Reported May 31 11:53 pm — Jun 15 11:53 pm, Boise. Weather by CustomWeather, © 2021

Note: Actual official high and low records may vary slightly from our data, if they occured in-between our weather recording intervals... More about our weather records

Boise Weather History for the Previous 24 Hours

Scroll right to see more
 ConditionsComfort  
Time TempWeatherWind HumidityBarometerVisibility
11:53 pm
Tue, Jun 15
65 °FClear.14 mph40%30.13 "Hg10 mi
10:53 pm68 °FClear.15 mph36%30.10 "Hg10 mi
9:53 pm70 °FSunny.21 mph37%30.06 "Hg10 mi
8:53 pm73 °FSunny.26 mph30%30.03 "Hg10 mi
7:53 pm86 °FSunny.12 mph17%29.94 "Hg10 mi
6:53 pm88 °FSunny.15 mph18%29.93 "Hg10 mi
5:53 pm87 °FSunny.5 mph17%29.93 "Hg10 mi
4:53 pm86 °FSunny.6 mph19%29.93 "Hg10 mi
3:53 pm85 °FSunny.7 mph22%29.94 "Hg9 mi
2:53 pm82 °FSunny.No wind23%29.95 "Hg10 mi
1:53 pm82 °FSunny.3 mph25%29.96 "Hg10 mi
12:53 pm78 °FSunny.3 mph31%29.96 "Hg10 mi
11:53 am76 °FSunny.7 mph39%29.97 "Hg10 mi
10:53 am72 °FSunny.8 mph44%29.98 "Hg10 mi
10:24 am71 °FSunny.8 mph47%30.07 "Hg10 mi
9:53 am69 °FSunny.8 mph51%29.98 "Hg10 mi
8:53 am65 °FSunny.8 mph56%29.97 "Hg10 mi
7:53 am64 °FSunny.7 mph58%29.96 "Hg10 mi
6:53 am62 °FClear.No wind62%29.93 "Hg10 mi
5:53 am64 °FClear.8 mph58%29.88 "Hg10 mi
4:53 am65 °FClear.8 mph56%29.85 "Hg10 mi
3:53 am66 °FClear.9 mph54%29.84 "Hg10 mi
2:53 am68 °FClear.13 mph51%29.81 "Hg10 mi
1:53 am71 °FClear.16 mph49%29.76 "Hg10 mi
Weather by CustomWeather, © 2021

See weather overview